createdAt,value
2023-01-11T00:57:11.788Z,368
2023-01-11T01:57:04.775Z,382
2023-01-11T02:17:11.942Z,370
2023-01-11T02:37:11.698Z,362
2023-01-11T03:17:04.684Z,361
2023-01-11T03:37:11.654Z,362
2023-01-11T03:57:11.642Z,365
2023-01-11T04:37:04.648Z,368
2023-01-11T04:57:04.570Z,381
2023-01-11T05:17:11.542Z,503
2023-01-11T05:57:04.517Z,502
2023-01-11T06:17:04.314Z,510
2023-01-11T07:17:04.437Z,547
2023-01-11T07:37:03.894Z,547
2023-01-11T07:57:04.396Z,570
2023-01-11T08:17:11.403Z,543
2023-01-11T08:37:04.390Z,550
2023-01-11T08:57:11.334Z,546
2023-01-11T09:17:11.317Z,581
2023-01-11T09:37:11.299Z,691
2023-01-11T09:57:04.276Z,634
2023-01-11T10:18:25.059Z,583
2023-01-11T10:37:03.759Z,567
2023-01-11T10:57:05.640Z,556
2023-01-11T11:17:04.224Z,613
2023-01-11T11:37:04.182Z,584
2023-01-11T11:57:04.233Z,588
2023-01-11T12:17:04.165Z,559
2023-01-11T12:37:04.108Z,566
2023-01-11T12:57:04.072Z,612
2023-01-11T13:17:04.096Z,602
2023-01-11T13:37:04.043Z,618
2023-01-11T13:57:04.034Z,609
2023-01-11T14:17:03.999Z,583
2023-01-11T14:37:04.090Z,578
2023-01-11T15:37:03.964Z,556
2023-01-11T16:17:03.888Z,536
2023-01-11T16:37:03.851Z,527
2023-01-11T16:57:03.852Z,529
2023-01-11T17:17:04.025Z,490
2023-01-11T18:57:03.725Z,482
2023-01-11T19:17:03.689Z,482
2023-01-11T19:57:03.652Z,486
2023-01-11T21:37:03.584Z,465
2023-01-11T21:57:03.645Z,471
2023-01-11T22:17:04.515Z,454
2023-01-11T22:57:03.469Z,455
2023-01-11T23:17:03.465Z,441
2023-01-11T23:57:03.418Z,461
